sensor_id;sensor_type;location;lat;lon;timestamp;pressure;altitude;pressure_sealevel;temperature;humidity
39105;BME280;46464;51.154;13.812;2023-02-28T00:00:23;52830.84;;;-146.96;85.40
39105;BME280;46464;51.154;13.812;2023-02-28T00:02:50;52845.09;;;-146.96;85.47
39105;BME280;46464;51.154;13.812;2023-02-28T00:05:19;52873.56;;;-146.96;85.50
39105;BME280;46464;51.154;13.812;2023-02-28T00:07:46;52836.94;;;-146.96;85.56
39105;BME280;46464;51.154;13.812;2023-02-28T00:10:13;52887.81;;;-146.96;85.62
39105;BME280;46464;51.154;13.812;2023-02-28T00:12:41;52871.53;;;-146.96;85.51
39105;BME280;46464;51.154;13.812;2023-02-28T00:15:09;52808.47;;;-146.96;85.54
39105;BME280;46464;51.154;13.812;2023-02-28T00:17:37;52847.13;;;-146.96;85.56
39105;BME280;46464;51.154;13.812;2023-02-28T00:20:05;52849.16;;;-146.96;85.56
39105;BME280;46464;51.154;13.812;2023-02-28T00:22:40;52832.88;;;-146.96;85.64
39105;BME280;46464;51.154;13.812;2023-02-28T00:25:18;52834.91;;;-146.96;85.71
39105;BME280;46464;51.154;13.812;2023-02-28T00:27:57;52832.88;;;-146.96;85.73
39105;BME280;46464;51.154;13.812;2023-02-28T00:30:23;52828.81;;;-146.96;85.81
39105;BME280;46464;51.154;13.812;2023-02-28T00:32:50;52851.19;;;-146.96;85.73
39105;BME280;46464;51.154;13.812;2023-02-28T00:35:17;52841.00;;;-146.96;85.65
39105;BME280;46464;51.154;13.812;2023-02-28T00:37:43;52843.06;;;-146.96;85.73
39105;BME280;46464;51.154;13.812;2023-02-28T00:40:11;52834.91;;;-146.96;85.65
39105;BME280;46464;51.154;13.812;2023-02-28T00:42:39;52859.34;;;-146.96;85.50
39105;BME280;46464;51.154;13.812;2023-02-28T00:45:05;52877.66;;;-146.96;85.34
39105;BME280;46464;51.154;13.812;2023-02-28T00:47:32;52883.75;;;-146.96;85.26
39105;BME280;46464;51.154;13.812;2023-02-28T00:49:59;52863.41;;;-146.96;85.40
39105;BME280;46464;51.154;13.812;2023-02-28T00:52:26;52853.22;;;-146.96;85.49
39105;BME280;46464;51.154;13.812;2023-02-28T00:54:52;52869.50;;;-146.96;85.51
39105;BME280;46464;51.154;13.812;2023-02-28T00:57:19;52855.25;;;-146.96;85.60
39105;BME280;46464;51.154;13.812;2023-02-28T00:59:46;52847.13;;;-146.96;85.43
39105;BME280;46464;51.154;13.812;2023-02-28T01:02:12;52879.69;;;-146.96;85.59
39105;BME280;46464;51.154;13.812;2023-02-28T01:04:39;52877.66;;;-146.96;85.64
39105;BME280;46464;51.154;13.812;2023-02-28T01:07:05;52916.31;;;-146.96;85.82
39105;BME280;46464;51.154;13.812;2023-02-28T01:09:32;52849.16;;;-146.96;85.64
39105;BME280;46464;51.154;13.812;2023-02-28T01:11:58;52879.69;;;-146.96;85.80
39105;BME280;46464;51.154;13.812;2023-02-28T01:14:25;52841.00;;;-146.96;85.55
39105;BME280;46464;51.154;13.812;2023-02-28T01:16:51;52863.41;;;-146.96;85.37
39105;BME280;46464;51.154;13.812;2023-02-28T01:19:18;52853.22;;;-146.96;85.71
39105;BME280;46464;51.154;13.812;2023-02-28T01:21:44;52867.47;;;-146.96;85.57
39105;BME280;46464;51.154;13.812;2023-02-28T01:24:11;52877.66;;;-146.96;85.38
39105;BME280;46464;51.154;13.812;2023-02-28T01:26:37;52869.50;;;-146.96;85.52
39105;BME280;46464;51.154;13.812;2023-02-28T01:29:04;52863.41;;;-146.96;85.62
39105;BME280;46464;51.154;13.812;2023-02-28T01:31:30;52887.81;;;-146.96;85.56
39105;BME280;46464;51.154;13.812;2023-02-28T01:33:57;52855.25;;;-146.96;85.10
39105;BME280;46464;51.154;13.812;2023-02-28T01:36:24;52902.06;;;-146.96;85.04
39105;BME280;46464;51.154;13.812;2023-02-28T01:38:51;52898.00;;;-146.96;84.68
39105;BME280;46464;51.154;13.812;2023-02-28T01:41:21;52904.09;;;-146.96;84.76
39105;BME280;46464;51.154;13.812;2023-02-28T01:46:14;52902.06;;;-146.96;84.99
39105;BME280;46464;51.154;13.812;2023-02-28T01:48:48;52900.03;;;-146.96;84.95
39105;BME280;46464;51.154;13.812;2023-02-28T01:51:22;52865.44;;;-146.96;85.05
39105;BME280;46464;51.154;13.812;2023-02-28T01:53:53;52863.41;;;-146.96;85.06
39105;BME280;46464;51.154;13.812;2023-02-28T01:56:24;52920.38;;;-146.96;84.99
39105;BME280;46464;51.154;13.812;2023-02-28T01:58:53;52871.53;;;-146.96;85.11
39105;BME280;46464;51.154;13.812;2023-02-28T02:01:21;52873.56;;;-146.96;85.04
39105;BME280;46464;51.154;13.812;2023-02-28T02:03:50;52902.06;;;-146.96;85.07
39105;BME280;46464;51.154;13.812;2023-02-28T02:06:23;52930.56;;;-146.96;85.13
39105;BME280;46464;51.154;13.812;2023-02-28T02:08:51;52895.97;;;-146.96;85.04
39105;BME280;46464;51.154;13.812;2023-02-28T02:11:20;52922.41;;;-146.96;85.18
39105;BME280;46464;51.154;13.812;2023-02-28T02:14:01;52875.59;;;-146.96;85.37
39105;BME280;46464;51.154;13.812;2023-02-28T02:20:04;52922.41;;;-146.96;85.60
39105;BME280;46464;51.154;13.812;2023-02-28T02:22:50;52893.94;;;-146.96;85.70
39105;BME280;46464;51.154;13.812;2023-02-28T02:25:45;52869.50;;;-146.96;85.81
39105;BME280;46464;51.154;13.812;2023-02-28T02:36:46;52910.22;;;-146.96;85.61
39105;BME280;46464;51.154;13.812;2023-02-28T02:39:35;52885.78;;;-146.96;85.78
39105;BME280;46464;51.154;13.812;2023-02-28T02:42:14;52944.81;;;-146.96;85.78
39105;BME280;46464;51.154;13.812;2023-02-28T02:44:48;52885.78;;;-146.96;86.08
39105;BME280;46464;51.154;13.812;2023-02-28T02:47:21;52916.31;;;-146.96;86.08
39105;BME280;46464;51.154;13.812;2023-02-28T02:49:55;52908.16;;;-146.96;86.12
39105;BME280;46464;51.154;13.812;2023-02-28T02:52:30;52889.84;;;-146.96;86.35
39105;BME280;46464;51.154;13.812;2023-02-28T02:55:02;52904.09;;;-146.96;86.08
39105;BME280;46464;51.154;13.812;2023-02-28T02:57:42;52904.09;;;-146.96;85.84
39105;BME280;46464;51.154;13.812;2023-02-28T03:00:12;52881.72;;;-146.96;85.74
39105;BME280;46464;51.154;13.812;2023-02-28T03:02:40;52904.09;;;-146.96;85.84
39105;BME280;46464;51.154;13.812;2023-02-28T03:05:23;52900.03;;;-146.96;85.81
39105;BME280;46464;51.154;13.812;2023-02-28T03:07:50;52916.31;;;-146.96;85.84
39105;BME280;46464;51.154;13.812;2023-02-28T03:10:29;52889.84;;;-146.96;85.87
39105;BME280;46464;51.154;13.812;2023-02-28T03:13:14;52959.03;;;-146.96;85.77
39105;BME280;46464;51.154;13.812;2023-02-28T03:21:40;52932.59;;;-146.96;85.73
39105;BME280;46464;51.154;13.812;2023-02-28T03:24:27;52914.28;;;-146.96;85.49
39105;BME280;46464;51.154;13.812;2023-02-28T03:27:02;52906.13;;;-146.96;85.41
39105;BME280;46464;51.154;13.812;2023-02-28T03:29:43;52916.31;;;-146.96;85.24
39105;BME280;46464;51.154;13.812;2023-02-28T03:32:33;52922.41;;;-146.96;85.54
39105;BME280;46464;51.154;13.812;2023-02-28T03:35:09;52891.88;;;-146.96;85.24
39105;BME280;46464;51.154;13.812;2023-02-28T03:37:41;52916.31;;;-146.96;85.22
39105;BME280;46464;51.154;13.812;2023-02-28T03:40:15;52926.50;;;-146.96;84.98
39105;BME280;46464;51.154;13.812;2023-02-28T03:42:47;52916.31;;;-146.96;84.89
39105;BME280;46464;51.154;13.812;2023-02-28T03:45:18;52912.25;;;-146.96;84.85
39105;BME280;46464;51.154;13.812;2023-02-28T03:48:01;52930.56;;;-146.96;84.89
39105;BME280;46464;51.154;13.812;2023-02-28T03:50:46;52932.59;;;-146.96;84.76
39105;BME280;46464;51.154;13.812;2023-02-28T03:56:22;52938.69;;;-146.96;84.67
39105;BME280;46464;51.154;13.812;2023-02-28T03:59:41;52952.94;;;-146.96;84.71
39105;BME280;46464;51.154;13.812;2023-02-28T04:01:48;52954.97;;;-146.96;84.74
39105;BME280;46464;51.154;13.812;2023-02-28T04:04:16;52977.38;;;-146.96;84.75
39105;BME280;46464;51.154;13.812;2023-02-28T04:06:43;52942.75;;;-146.96;84.61
39105;BME280;46464;51.154;13.812;2023-02-28T04:09:13;52957.00;;;-146.96;84.78
39105;BME280;46464;51.154;13.812;2023-02-28T04:11:50;52930.56;;;-146.96;84.72
39105;BME280;46464;51.154;13.812;2023-02-28T04:14:18;52973.28;;;-146.96;84.73
39105;BME280;46464;51.154;13.812;2023-02-28T04:16:45;52898.00;;;-146.96;84.64
39105;BME280;46464;51.154;13.812;2023-02-28T04:19:12;52969.22;;;-146.96;84.91
39105;BME280;46464;51.154;13.812;2023-02-28T04:21:45;52979.41;;;-146.96;84.83
39105;BME280;46464;51.154;13.812;2023-02-28T04:24:14;52942.75;;;-146.96;84.69
39105;BME280;46464;51.154;13.812;2023-02-28T04:26:43;52961.09;;;-146.96;84.40
39105;BME280;46464;51.154;13.812;2023-02-28T04:29:12;52930.56;;;-146.96;84.69
39105;BME280;46464;51.154;13.812;2023-02-28T04:31:39;52950.91;;;-146.96;84.61
39105;BME280;46464;51.154;13.812;2023-02-28T04:34:06;52975.31;;;-146.96;84.78
39105;BME280;46464;51.154;13.812;2023-02-28T04:36:32;52934.63;;;-146.96;85.04
39105;BME280;46464;51.154;13.812;2023-02-28T04:38:59;52940.72;;;-146.96;85.04
39105;BME280;46464;51.154;13.812;2023-02-28T04:41:26;52942.75;;;-146.96;85.15
39105;BME280;46464;51.154;13.812;2023-02-28T04:43:56;52946.84;;;-146.96;84.97
39105;BME280;46464;51.154;13.812;2023-02-28T04:46:22;52948.88;;;-146.96;85.04
39105;BME280;46464;51.154;13.812;2023-02-28T04:48:49;52924.44;;;-146.96;85.20
39105;BME280;46464;51.154;13.812;2023-02-28T04:51:17;52981.44;;;-146.96;85.29
39105;BME280;46464;51.154;13.812;2023-02-28T04:53:44;52946.84;;;-146.96;85.21
39105;BME280;46464;51.154;13.812;2023-02-28T04:56:13;52967.19;;;-146.96;85.10
39105;BME280;46464;51.154;13.812;2023-02-28T04:58:40;52944.81;;;-146.96;85.07
39105;BME280;46464;51.154;13.812;2023-02-28T05:01:26;52954.97;;;-146.96;84.96
39105;BME280;46464;51.154;13.812;2023-02-28T05:03:55;52938.69;;;-146.96;85.18
39105;BME280;46464;51.154;13.812;2023-02-28T05:06:24;52957.00;;;-146.96;85.15
39105;BME280;46464;51.154;13.812;2023-02-28T05:08:51;52938.69;;;-146.96;85.37
39105;BME280;46464;51.154;13.812;2023-02-28T05:11:24;52963.13;;;-146.96;85.29
39105;BME280;46464;51.154;13.812;2023-02-28T05:13:51;52969.22;;;-146.96;85.27
39105;BME280;46464;51.154;13.812;2023-02-28T05:16:18;52967.19;;;-146.96;85.16
39105;BME280;46464;51.154;13.812;2023-02-28T05:18:45;52969.22;;;-146.96;85.10
39105;BME280;46464;51.154;13.812;2023-02-28T05:21:23;52973.28;;;-146.96;84.99
39105;BME280;46464;51.154;13.812;2023-02-28T05:23:51;52928.53;;;-146.96;84.02
39105;BME280;46464;51.154;13.812;2023-02-28T05:26:18;52979.41;;;-146.96;84.17
39105;BME280;46464;51.154;13.812;2023-02-28T05:28:44;52950.91;;;-146.96;84.50
39105;BME280;46464;51.154;13.812;2023-02-28T05:31:11;52969.22;;;-146.96;84.59
39105;BME280;46464;51.154;13.812;2023-02-28T05:33:37;52973.28;;;-146.96;84.52
39105;BME280;46464;51.154;13.812;2023-02-28T05:36:04;52985.50;;;-146.96;84.66
39105;BME280;46464;51.154;13.812;2023-02-28T05:38:30;52959.03;;;-146.96;84.68
39105;BME280;46464;51.154;13.812;2023-02-28T05:40:57;52997.72;;;-146.96;84.44
39105;BME280;46464;51.154;13.812;2023-02-28T05:43:24;52975.31;;;-146.96;84.56
39105;BME280;46464;51.154;13.812;2023-02-28T05:45:50;52985.50;;;-146.96;84.65
39105;BME280;46464;51.154;13.812;2023-02-28T05:48:17;52997.72;;;-146.96;84.59
39105;BME280;46464;51.154;13.812;2023-02-28T05:50:44;52977.38;;;-146.96;84.55
39105;BME280;46464;51.154;13.812;2023-02-28T05:53:12;52979.41;;;-146.96;84.67
39105;BME280;46464;51.154;13.812;2023-02-28T05:55:38;52952.94;;;-146.96;84.93
39105;BME280;46464;51.154;13.812;2023-02-28T05:58:05;52944.81;;;-146.96;84.76
39105;BME280;46464;51.154;13.812;2023-02-28T06:00:31;52973.28;;;-146.96;84.84
39105;BME280;46464;51.154;13.812;2023-02-28T06:02:58;52967.19;;;-146.96;84.65
39105;BME280;46464;51.154;13.812;2023-02-28T06:05:28;52946.84;;;-146.96;84.85
39105;BME280;46464;51.154;13.812;2023-02-28T06:07:54;52959.03;;;-146.96;85.15
39105;BME280;46464;51.154;13.812;2023-02-28T06:10:20;52973.28;;;-146.96;84.91
39105;BME280;46464;51.154;13.812;2023-02-28T06:12:47;52957.00;;;-146.96;85.01
39105;BME280;46464;51.154;13.812;2023-02-28T06:15:14;52959.03;;;-146.96;84.92
39105;BME280;46464;51.154;13.812;2023-02-28T06:17:42;53001.78;;;-146.96;84.91
39105;BME280;46464;51.154;13.812;2023-02-28T06:20:10;52942.75;;;-146.96;85.21
39105;BME280;46464;51.154;13.812;2023-02-28T06:22:39;52952.94;;;-146.96;85.07
39105;BME280;46464;51.154;13.812;2023-02-28T06:25:06;52983.47;;;-146.96;85.08
39105;BME280;46464;51.154;13.812;2023-02-28T06:27:33;52965.16;;;-146.96;85.02
39105;BME280;46464;51.154;13.812;2023-02-28T06:30:00;52985.50;;;-146.96;84.93
39105;BME280;46464;51.154;13.812;2023-02-28T06:32:26;52944.81;;;-146.96;84.85
39105;BME280;46464;51.154;13.812;2023-02-28T06:34:52;52938.69;;;-146.96;85.24
39105;BME280;46464;51.154;13.812;2023-02-28T06:37:19;52977.38;;;-146.96;85.57
39105;BME280;46464;51.154;13.812;2023-02-28T06:39:46;52971.25;;;-146.96;85.58
39105;BME280;46464;51.154;13.812;2023-02-28T06:42:12;52973.28;;;-146.96;84.96
39105;BME280;46464;51.154;13.812;2023-02-28T06:44:39;52946.84;;;-146.96;84.98
39105;BME280;46464;51.154;13.812;2023-02-28T06:47:06;52954.97;;;-146.96;85.05
39105;BME280;46464;51.154;13.812;2023-02-28T06:49:33;52954.97;;;-146.96;85.06
39105;BME280;46464;51.154;13.812;2023-02-28T06:52:01;52942.75;;;-146.96;84.99
39105;BME280;46464;51.154;13.812;2023-02-28T06:54:28;52981.44;;;-146.96;84.81
39105;BME280;46464;51.154;13.812;2023-02-28T06:56:54;52967.19;;;-146.96;85.14
39105;BME280;46464;51.154;13.812;2023-02-28T06:59:21;52946.84;;;-146.96;85.20
39105;BME280;46464;51.154;13.812;2023-02-28T07:01:47;52948.88;;;-146.96;85.31
39105;BME280;46464;51.154;13.812;2023-02-28T07:04:14;52979.41;;;-146.96;85.51
39105;BME280;46464;51.154;13.812;2023-02-28T07:06:40;52910.22;;;-146.96;85.55
39105;BME280;46464;51.154;13.812;2023-02-28T07:09:07;52946.84;;;-146.96;85.53
39105;BME280;46464;51.154;13.812;2023-02-28T07:11:34;52924.44;;;-146.96;85.48
39105;BME280;46464;51.154;13.812;2023-02-28T07:14:00;52957.00;;;-146.96;85.54
39105;BME280;46464;51.154;13.812;2023-02-28T07:16:27;52961.09;;;-146.96;85.46
39105;BME280;46464;51.154;13.812;2023-02-28T07:18:53;52920.38;;;-146.96;85.54
39105;BME280;46464;51.154;13.812;2023-02-28T07:21:21;52940.72;;;-146.96;85.95
39105;BME280;46464;51.154;13.812;2023-02-28T07:23:48;52920.38;;;-146.96;86.23
39105;BME280;46464;51.154;13.812;2023-02-28T07:26:17;52932.59;;;-146.96;86.39
39105;BME280;46464;51.154;13.812;2023-02-28T07:28:48;52934.63;;;-146.96;86.86
39105;BME280;46464;51.154;13.812;2023-02-28T07:31:16;52898.00;;;-146.96;87.02
39105;BME280;46464;51.154;13.812;2023-02-28T07:33:43;52928.53;;;-146.96;87.04
39105;BME280;46464;51.154;13.812;2023-02-28T07:36:14;52891.88;;;-146.96;86.85
39105;BME280;46464;51.154;13.812;2023-02-28T07:38:46;52877.66;;;-146.96;86.94
39105;BME280;46464;51.154;13.812;2023-02-28T07:41:21;52904.09;;;-146.96;87.03
39105;BME280;46464;51.154;13.812;2023-02-28T07:43:48;52910.22;;;-146.96;87.24
39105;BME280;46464;51.154;13.812;2023-02-28T07:46:15;52910.22;;;-146.96;87.42
39105;BME280;46464;51.154;13.812;2023-02-28T07:48:46;52902.06;;;-146.96;87.31
39105;BME280;46464;51.154;13.812;2023-02-28T07:51:13;52902.06;;;-146.96;87.37
39105;BME280;46464;51.154;13.812;2023-02-28T07:53:40;52928.53;;;-146.96;87.15
39105;BME280;46464;51.154;13.812;2023-02-28T07:56:06;52893.94;;;-146.96;86.79
39105;BME280;46464;51.154;13.812;2023-02-28T07:58:34;52887.81;;;-146.96;86.77
39105;BME280;46464;51.154;13.812;2023-02-28T08:01:10;52898.00;;;-146.96;86.52
39105;BME280;46464;51.154;13.812;2023-02-28T08:03:37;52926.50;;;-146.96;86.50
39105;BME280;46464;51.154;13.812;2023-02-28T08:06:05;52883.75;;;-146.96;86.55
39105;BME280;46464;51.154;13.812;2023-02-28T08:08:32;52887.81;;;-146.96;86.63
39105;BME280;46464;51.154;13.812;2023-02-28T08:11:00;52887.81;;;-146.96;86.66
39105;BME280;46464;51.154;13.812;2023-02-28T08:13:30;52863.41;;;-146.96;86.54
39105;BME280;46464;51.154;13.812;2023-02-28T08:16:01;52904.09;;;-146.96;86.71
39105;BME280;46464;51.154;13.812;2023-02-28T08:18:28;52893.94;;;-146.96;86.60
39105;BME280;46464;51.154;13.812;2023-02-28T08:20:57;52879.69;;;-146.96;86.92
39105;BME280;46464;51.154;13.812;2023-02-28T08:23:26;52885.78;;;-146.96;86.85
39105;BME280;46464;51.154;13.812;2023-02-28T08:25:59;52877.66;;;-146.96;86.72
39105;BME280;46464;51.154;13.812;2023-02-28T08:28:28;52869.50;;;-146.96;86.88
39105;BME280;46464;51.154;13.812;2023-02-28T08:30:59;52875.59;;;-146.96;86.87
39105;BME280;46464;51.154;13.812;2023-02-28T08:33:27;52869.50;;;-146.96;86.96
39105;BME280;46464;51.154;13.812;2023-02-28T08:35:55;52820.66;;;-146.96;86.83
39105;BME280;46464;51.154;13.812;2023-02-28T08:38:22;52869.50;;;-146.96;86.85
39105;BME280;46464;51.154;13.812;2023-02-28T08:40:49;52857.28;;;-146.96;86.73
39105;BME280;46464;51.154;13.812;2023-02-28T08:43:16;52832.88;;;-146.96;86.62
39105;BME280;46464;51.154;13.812;2023-02-28T08:45:42;52836.94;;;-146.96;86.41
39105;BME280;46464;51.154;13.812;2023-02-28T08:48:09;52879.69;;;-146.96;86.26
39105;BME280;46464;51.154;13.812;2023-02-28T08:50:36;52834.91;;;-146.96;86.00
39105;BME280;46464;51.154;13.812;2023-02-28T08:53:02;52841.00;;;-146.96;85.92
39105;BME280;46464;51.154;13.812;2023-02-28T08:55:29;52877.66;;;-146.96;85.86
39105;BME280;46464;51.154;13.812;2023-02-28T08:57:55;52855.25;;;-146.96;85.28
39105;BME280;46464;51.154;13.812;2023-02-28T09:00:22;52841.00;;;-146.96;84.95
39105;BME280;46464;51.154;13.812;2023-02-28T09:02:48;52838.97;;;-146.96;84.67
39105;BME280;46464;51.154;13.812;2023-02-28T09:05:15;52857.28;;;-146.96;84.43
39105;BME280;46464;51.154;13.812;2023-02-28T09:07:41;52851.19;;;-146.96;84.13
39105;BME280;46464;51.154;13.812;2023-02-28T09:10:09;52859.34;;;-146.96;81.92
39105;BME280;46464;51.154;13.812;2023-02-28T09:12:36;52824.72;;;-146.96;80.76
39105;BME280;46464;51.154;13.812;2023-02-28T09:15:06;52845.09;;;-146.96;79.84
39105;BME280;46464;51.154;13.812;2023-02-28T09:17:32;52830.84;;;-146.96;79.35
39105;BME280;46464;51.154;13.812;2023-02-28T09:19:59;52830.84;;;-146.96;79.10
39105;BME280;46464;51.154;13.812;2023-02-28T09:22:26;52814.56;;;-146.96;78.78
39105;BME280;46464;51.154;13.812;2023-02-28T09:24:52;52814.56;;;-146.96;77.26
39105;BME280;46464;51.154;13.812;2023-02-28T09:27:19;52806.41;;;-146.96;75.11
39105;BME280;46464;51.154;13.812;2023-02-28T09:29:45;52773.84;;;-146.96;70.64
39105;BME280;46464;51.154;13.812;2023-02-28T09:32:15;52808.47;;;-146.96;70.93
39105;BME280;46464;51.154;13.812;2023-02-28T09:34:43;52798.28;;;-146.96;70.17
39105;BME280;46464;51.154;13.812;2023-02-28T09:37:10;52794.22;;;-146.96;68.94
39105;BME280;46464;51.154;13.812;2023-02-28T09:39:36;52798.28;;;-146.96;67.92
39105;BME280;46464;51.154;13.812;2023-02-28T09:42:05;52779.97;;;-146.96;67.18
39105;BME280;46464;51.154;13.812;2023-02-28T09:44:42;52757.59;;;-146.96;68.40
39105;BME280;46464;51.154;13.812;2023-02-28T09:47:33;52775.91;;;-146.96;66.96
39105;BME280;46464;51.154;13.812;2023-02-28T09:52:41;52751.47;;;-146.96;67.60
39105;BME280;46464;51.154;13.812;2023-02-28T09:57:41;52751.47;;;-146.96;63.83
39105;BME280;46464;51.154;13.812;2023-02-28T10:03:23;52777.94;;;-146.96;67.04
39105;BME280;46464;51.154;13.812;2023-02-28T10:06:01;52759.63;;;-146.96;63.79
39105;BME280;46464;51.154;13.812;2023-02-28T10:08:37;52763.69;;;-146.96;62.02
39105;BME280;46464;51.154;13.812;2023-02-28T10:11:17;52747.41;;;-146.96;63.29
39105;BME280;46464;51.154;13.812;2023-02-28T10:13:59;52718.91;;;-146.96;63.52
39105;BME280;46464;51.154;13.812;2023-02-28T10:16:35;52739.25;;;-146.96;61.97
39105;BME280;46464;51.154;13.812;2023-02-28T10:19:09;52739.25;;;-146.96;60.79
39105;BME280;46464;51.154;13.812;2023-02-28T10:21:46;52798.28;;;-146.96;60.28
39105;BME280;46464;51.154;13.812;2023-02-28T10:24:20;52747.41;;;-146.96;59.28
39105;BME280;46464;51.154;13.812;2023-02-28T10:26:52;52731.13;;;-146.96;59.80
39105;BME280;46464;51.154;13.812;2023-02-28T10:29:23;52731.13;;;-146.96;59.70
39105;BME280;46464;51.154;13.812;2023-02-28T10:31:49;52716.88;;;-146.96;58.70
39105;BME280;46464;51.154;13.812;2023-02-28T10:34:16;52708.75;;;-146.96;56.76
39105;BME280;46464;51.154;13.812;2023-02-28T10:36:42;52755.53;;;-146.96;59.27
39105;BME280;46464;51.154;13.812;2023-02-28T10:39:34;52739.25;;;-146.96;57.24
39105;BME280;46464;51.154;13.812;2023-02-28T10:42:01;52733.16;;;-146.96;57.32
39105;BME280;46464;51.154;13.812;2023-02-28T10:44:27;52759.63;;;-146.96;58.88
39105;BME280;46464;51.154;13.812;2023-02-28T10:46:55;52743.34;;;-146.96;58.25
39105;BME280;46464;51.154;13.812;2023-02-28T10:49:25;52765.72;;;-146.96;60.46
39105;BME280;46464;51.154;13.812;2023-02-28T10:51:56;52741.31;;;-146.96;63.35
39105;BME280;46464;51.154;13.812;2023-02-28T10:54:32;52700.59;;;-146.96;61.81
39105;BME280;46464;51.154;13.812;2023-02-28T10:57:23;52704.66;;;-146.96;61.74
39105;BME280;46464;51.154;13.812;2023-02-28T11:00:08;52720.94;;;-146.96;60.68
39105;BME280;46464;51.154;13.812;2023-02-28T11:02:39;52710.78;;;-146.96;61.90
39105;BME280;46464;51.154;13.812;2023-02-28T11:05:32;52706.72;;;-146.96;62.42
39105;BME280;46464;51.154;13.812;2023-02-28T11:08:06;52720.94;;;-146.96;61.51
39105;BME280;46464;51.154;13.812;2023-02-28T11:10:36;52743.34;;;-146.96;60.29
39105;BME280;46464;51.154;13.812;2023-02-28T11:13:03;52702.63;;;-146.96;62.54
39105;BME280;46464;51.154;13.812;2023-02-28T11:15:32;52676.19;;;-146.96;62.72
39105;BME280;46464;51.154;13.812;2023-02-28T11:20:38;52702.63;;;-146.96;60.85
39105;BME280;46464;51.154;13.812;2023-02-28T11:23:12;52708.75;;;-146.96;58.32
39105;BME280;46464;51.154;13.812;2023-02-28T11:25:40;52718.91;;;-146.96;58.32
39105;BME280;46464;51.154;13.812;2023-02-28T11:28:33;52735.19;;;-146.96;57.58
39105;BME280;46464;51.154;13.812;2023-02-28T11:33:53;52690.44;;;-146.96;59.54
39105;BME280;46464;51.154;13.812;2023-02-28T11:36:23;52688.41;;;-146.96;57.47
39105;BME280;46464;51.154;13.812;2023-02-28T11:38:55;52743.34;;;-146.96;56.88
39105;BME280;46464;51.154;13.812;2023-02-28T11:41:38;52716.88;;;-146.96;55.75
39105;BME280;46464;51.154;13.812;2023-02-28T11:44:23;52682.28;;;-146.96;57.60
39105;BME280;46464;51.154;13.812;2023-02-28T11:47:02;52708.75;;;-146.96;59.23
39105;BME280;46464;51.154;13.812;2023-02-28T11:55:20;52690.44;;;-146.96;56.07
39105;BME280;46464;51.154;13.812;2023-02-28T11:58:14;52696.53;;;-146.96;57.91
39105;BME280;46464;51.154;13.812;2023-02-28T12:03:48;52710.78;;;-146.96;59.11
39105;BME280;46464;51.154;13.812;2023-02-28T12:06:32;52708.75;;;-146.96;60.68
39105;BME280;46464;51.154;13.812;2023-02-28T12:09:47;52696.53;;;-146.96;57.33
39105;BME280;46464;51.154;13.812;2023-02-28T12:12:48;52690.44;;;-146.96;56.93
39105;BME280;46464;51.154;13.812;2023-02-28T12:17:50;52666.00;;;-146.96;56.08
39105;BME280;46464;51.154;13.812;2023-02-28T12:25:47;52694.50;;;-146.96;55.08
39105;BME280;46464;51.154;13.812;2023-02-28T12:28:21;52720.94;;;-146.96;56.60
39105;BME280;46464;51.154;13.812;2023-02-28T12:31:20;52680.25;;;-146.96;56.17
39105;BME280;46464;51.154;13.812;2023-02-28T12:33:52;52678.22;;;-146.96;58.37
39105;BME280;46464;51.154;13.812;2023-02-28T12:36:20;52678.22;;;-146.96;57.17
39105;BME280;46464;51.154;13.812;2023-02-28T12:39:01;52684.31;;;-146.96;57.21
39105;BME280;46464;51.154;13.812;2023-02-28T12:41:45;52720.94;;;-146.96;56.20
39105;BME280;46464;51.154;13.812;2023-02-28T12:44:20;52696.53;;;-146.96;55.93
39105;BME280;46464;51.154;13.812;2023-02-28T12:46:54;52688.41;;;-146.96;57.88
39105;BME280;46464;51.154;13.812;2023-02-28T12:49:27;52727.06;;;-146.96;58.35
39105;BME280;46464;51.154;13.812;2023-02-28T12:51:59;52680.25;;;-146.96;56.08
39105;BME280;46464;51.154;13.812;2023-02-28T12:54:44;52706.72;;;-146.96;53.93
39105;BME280;46464;51.154;13.812;2023-02-28T13:00:00;52710.78;;;-146.96;56.69
39105;BME280;46464;51.154;13.812;2023-02-28T13:05:37;52680.25;;;-146.96;56.44
39105;BME280;46464;51.154;13.812;2023-02-28T13:11:32;52692.47;;;-146.96;57.32
39105;BME280;46464;51.154;13.812;2023-02-28T13:14:02;52690.44;;;-146.96;58.35
39105;BME280;46464;51.154;13.812;2023-02-28T13:16:51;52674.16;;;-146.96;54.63
39105;BME280;46464;51.154;13.812;2023-02-28T13:19:20;52674.16;;;-146.96;54.95
39105;BME280;46464;51.154;13.812;2023-02-28T13:21:50;52672.13;;;-146.96;56.19
39105;BME280;46464;51.154;13.812;2023-02-28T13:24:49;52678.22;;;-146.96;54.92
39105;BME280;46464;51.154;13.812;2023-02-28T13:29:52;52704.66;;;-146.96;55.54
39105;BME280;46464;51.154;13.812;2023-02-28T13:32:31;52680.25;;;-146.96;55.82
39105;BME280;46464;51.154;13.812;2023-02-28T13:39:55;52718.91;;;-146.96;56.59
39105;BME280;46464;51.154;13.812;2023-02-28T13:47:51;52690.44;;;-146.96;56.76
39105;BME280;46464;51.154;13.812;2023-02-28T13:50:29;52694.50;;;-146.96;56.59
39105;BME280;46464;51.154;13.812;2023-02-28T13:58:32;52670.06;;;-146.96;55.35
39105;BME280;46464;51.154;13.812;2023-02-28T14:01:11;52670.06;;;-146.96;56.89
39105;BME280;46464;51.154;13.812;2023-02-28T14:06:27;52690.44;;;-146.96;57.05
39105;BME280;46464;51.154;13.812;2023-02-28T14:09:00;52670.06;;;-146.96;56.49
39105;BME280;46464;51.154;13.812;2023-02-28T14:11:33;52684.31;;;-146.96;55.07
39105;BME280;46464;51.154;13.812;2023-02-28T14:14:00;52670.06;;;-146.96;54.36